sensor_id;sensor_type;location;lat;lon;timestamp;P1;durP1;ratioP1;P2;durP2;ratioP2
66429;SDS011;53242;51.694;10.006;2023-03-26T00:01:02;3.17;;;1.17;;
66429;SDS011;53242;51.694;10.006;2023-03-26T00:03:26;5.15;;;1.40;;
66429;SDS011;53242;51.694;10.006;2023-03-26T00:05:49;2.38;;;1.05;;
66429;SDS011;53242;51.694;10.006;2023-03-26T00:08:29;2.97;;;1.05;;
66429;SDS011;53242;51.694;10.006;2023-03-26T00:10:51;3.60;;;1.20;;
66429;SDS011;53242;51.694;10.006;2023-03-26T00:13:14;2.53;;;1.13;;
66429;SDS011;53242;51.694;10.006;2023-03-26T00:15:37;2.58;;;0.95;;
66429;SDS011;53242;51.694;10.006;2023-03-26T00:17:59;2.47;;;1.05;;
66429;SDS011;53242;51.694;10.006;2023-03-26T00:20:25;2.90;;;1.30;;
66429;SDS011;53242;51.694;10.006;2023-03-26T00:22:48;5.38;;;1.45;;
66429;SDS011;53242;51.694;10.006;2023-03-26T00:25:12;3.72;;;1.10;;
66429;SDS011;53242;51.694;10.006;2023-03-26T00:27:35;4.28;;;1.20;;
66429;SDS011;53242;51.694;10.006;2023-03-26T00:29:58;5.57;;;0.98;;
66429;SDS011;53242;51.694;10.006;2023-03-26T00:32:22;2.65;;;1.00;;
66429;SDS011;53242;51.694;10.006;2023-03-26T00:34:48;3.60;;;1.08;;
66429;SDS011;53242;51.694;10.006;2023-03-26T00:37:12;3.00;;;1.00;;
66429;SDS011;53242;51.694;10.006;2023-03-26T00:39:36;2.50;;;0.98;;
66429;SDS011;53242;51.694;10.006;2023-03-26T00:42:00;2.90;;;0.93;;
66429;SDS011;53242;51.694;10.006;2023-03-26T00:44:27;3.70;;;0.90;;
66429;SDS011;53242;51.694;10.006;2023-03-26T00:46:50;2.75;;;1.02;;
66429;SDS011;53242;51.694;10.006;2023-03-26T00:49:13;2.60;;;0.98;;
66429;SDS011;53242;51.694;10.006;2023-03-26T00:51:35;3.45;;;1.00;;
66429;SDS011;53242;51.694;10.006;2023-03-26T00:53:59;2.72;;;1.17;;
66429;SDS011;53242;51.694;10.006;2023-03-26T00:56:22;2.22;;;0.70;;
66429;SDS011;53242;51.694;10.006;2023-03-26T00:58:45;5.97;;;1.75;;
66429;SDS011;53242;51.694;10.006;2023-03-26T01:01:10;2.45;;;1.10;;
66429;SDS011;53242;51.694;10.006;2023-03-26T01:03:35;2.97;;;0.80;;
66429;SDS011;53242;51.694;10.006;2023-03-26T01:06:06;3.70;;;1.10;;
66429;SDS011;53242;51.694;10.006;2023-03-26T01:08:42;4.00;;;1.10;;
66429;SDS011;53242;51.694;10.006;2023-03-26T01:11:48;3.22;;;0.93;;
66429;SDS011;53242;51.694;10.006;2023-03-26T01:13:54;3.92;;;1.17;;
66429;SDS011;53242;51.694;10.006;2023-03-26T01:16:27;3.13;;;1.00;;
66429;SDS011;53242;51.694;10.006;2023-03-26T01:18:55;2.75;;;1.20;;
66429;SDS011;53242;51.694;10.006;2023-03-26T01:21:22;3.95;;;1.00;;
66429;SDS011;53242;51.694;10.006;2023-03-26T01:23:55;4.05;;;1.05;;
66429;SDS011;53242;51.694;10.006;2023-03-26T01:26:22;3.40;;;0.93;;
66429;SDS011;53242;51.694;10.006;2023-03-26T01:29:17;3.13;;;1.05;;
66429;SDS011;53242;51.694;10.006;2023-03-26T01:34:35;4.55;;;1.20;;
66429;SDS011;53242;51.694;10.006;2023-03-26T01:39:37;1.98;;;0.80;;
66429;SDS011;53242;51.694;10.006;2023-03-26T01:42:14;1.67;;;0.57;;
66429;SDS011;53242;51.694;10.006;2023-03-26T01:44:49;2.83;;;0.98;;
66429;SDS011;53242;51.694;10.006;2023-03-26T01:47:19;1.80;;;0.80;;
66429;SDS011;53242;51.694;10.006;2023-03-26T01:49:42;2.47;;;1.08;;
66429;SDS011;53242;51.694;10.006;2023-03-26T01:52:12;4.50;;;1.13;;
66429;SDS011;53242;51.694;10.006;2023-03-26T01:54:38;3.15;;;0.98;;
66429;SDS011;53242;51.694;10.006;2023-03-26T01:57:05;2.95;;;1.20;;
66429;SDS011;53242;51.694;10.006;2023-03-26T01:59:41;3.75;;;0.90;;
66429;SDS011;53242;51.694;10.006;2023-03-26T02:02:14;1.52;;;0.98;;
66429;SDS011;53242;51.694;10.006;2023-03-26T02:07:19;3.38;;;0.98;;
66429;SDS011;53242;51.694;10.006;2023-03-26T02:09:44;2.95;;;1.10;;
66429;SDS011;53242;51.694;10.006;2023-03-26T02:12:12;2.83;;;1.10;;
66429;SDS011;53242;51.694;10.006;2023-03-26T02:14:35;2.78;;;1.30;;
66429;SDS011;53242;51.694;10.006;2023-03-26T02:16:58;3.15;;;1.10;;
66429;SDS011;53242;51.694;10.006;2023-03-26T02:19:21;3.78;;;1.38;;
66429;SDS011;53242;51.694;10.006;2023-03-26T02:21:46;3.42;;;1.30;;
66429;SDS011;53242;51.694;10.006;2023-03-26T02:24:12;4.22;;;1.10;;
66429;SDS011;53242;51.694;10.006;2023-03-26T02:26:35;2.45;;;1.15;;
66429;SDS011;53242;51.694;10.006;2023-03-26T02:29:04;3.47;;;1.38;;
66429;SDS011;53242;51.694;10.006;2023-03-26T02:31:28;4.00;;;1.45;;
66429;SDS011;53242;51.694;10.006;2023-03-26T02:33:51;4.32;;;1.65;;
66429;SDS011;53242;51.694;10.006;2023-03-26T02:36:18;4.05;;;1.70;;
66429;SDS011;53242;51.694;10.006;2023-03-26T02:38:45;4.25;;;1.70;;
66429;SDS011;53242;51.694;10.006;2023-03-26T02:41:09;6.40;;;1.65;;
66429;SDS011;53242;51.694;10.006;2023-03-26T02:43:45;6.50;;;1.52;;
66429;SDS011;53242;51.694;10.006;2023-03-26T02:46:11;4.72;;;1.70;;
66429;SDS011;53242;51.694;10.006;2023-03-26T02:48:52;4.85;;;1.80;;
66429;SDS011;53242;51.694;10.006;2023-03-26T02:51:20;3.65;;;1.70;;
66429;SDS011;53242;51.694;10.006;2023-03-26T02:54:03;6.97;;;1.95;;
66429;SDS011;53242;51.694;10.006;2023-03-26T02:56:43;4.28;;;1.73;;
66429;SDS011;53242;51.694;10.006;2023-03-26T02:59:18;3.15;;;1.42;;
66429;SDS011;53242;51.694;10.006;2023-03-26T03:01:45;3.70;;;1.50;;
66429;SDS011;53242;51.694;10.006;2023-03-26T03:04:10;2.60;;;1.40;;
66429;SDS011;53242;51.694;10.006;2023-03-26T03:06:33;5.72;;;1.55;;
66429;SDS011;53242;51.694;10.006;2023-03-26T03:08:55;4.47;;;1.45;;
66429;SDS011;53242;51.694;10.006;2023-03-26T03:13:56;4.80;;;1.48;;
66429;SDS011;53242;51.694;10.006;2023-03-26T03:16:21;5.47;;;1.60;;
66429;SDS011;53242;51.694;10.006;2023-03-26T03:18:43;4.25;;;1.42;;
66429;SDS011;53242;51.694;10.006;2023-03-26T03:21:07;4.80;;;1.45;;
66429;SDS011;53242;51.694;10.006;2023-03-26T03:23:30;4.72;;;1.73;;
66429;SDS011;53242;51.694;10.006;2023-03-26T03:26:03;6.15;;;1.70;;
66429;SDS011;53242;51.694;10.006;2023-03-26T03:28:26;5.82;;;1.65;;
66429;SDS011;53242;51.694;10.006;2023-03-26T03:30:49;9.48;;;2.00;;
66429;SDS011;53242;51.694;10.006;2023-03-26T03:33:22;4.78;;;2.05;;
66429;SDS011;53242;51.694;10.006;2023-03-26T03:35:45;7.38;;;2.30;;
66429;SDS011;53242;51.694;10.006;2023-03-26T03:38:09;6.53;;;2.28;;
66429;SDS011;53242;51.694;10.006;2023-03-26T03:43:03;5.97;;;2.35;;
66429;SDS011;53242;51.694;10.006;2023-03-26T03:45:34;9.13;;;2.40;;
66429;SDS011;53242;51.694;10.006;2023-03-26T03:48:02;9.07;;;2.40;;
66429;SDS011;53242;51.694;10.006;2023-03-26T03:50:32;8.23;;;2.60;;
66429;SDS011;53242;51.694;10.006;2023-03-26T03:53:15;7.13;;;2.50;;
66429;SDS011;53242;51.694;10.006;2023-03-26T03:55:43;9.07;;;2.33;;
66429;SDS011;53242;51.694;10.006;2023-03-26T03:58:14;8.55;;;2.33;;
66429;SDS011;53242;51.694;10.006;2023-03-26T04:00:43;6.15;;;2.55;;
66429;SDS011;53242;51.694;10.006;2023-03-26T04:03:25;7.45;;;2.70;;
66429;SDS011;53242;51.694;10.006;2023-03-26T04:05:51;7.28;;;2.47;;
66429;SDS011;53242;51.694;10.006;2023-03-26T04:08:17;6.50;;;2.35;;
66429;SDS011;53242;51.694;10.006;2023-03-26T04:10:43;8.02;;;2.60;;
66429;SDS011;53242;51.694;10.006;2023-03-26T04:13:12;7.85;;;2.50;;
66429;SDS011;53242;51.694;10.006;2023-03-26T04:15:48;7.72;;;2.05;;
66429;SDS011;53242;51.694;10.006;2023-03-26T04:18:10;5.68;;;2.20;;
66429;SDS011;53242;51.694;10.006;2023-03-26T04:20:33;6.60;;;2.20;;
66429;SDS011;53242;51.694;10.006;2023-03-26T04:22:56;5.07;;;1.90;;
66429;SDS011;53242;51.694;10.006;2023-03-26T04:25:21;4.45;;;1.67;;
66429;SDS011;53242;51.694;10.006;2023-03-26T04:28:04;5.55;;;1.67;;
66429;SDS011;53242;51.694;10.006;2023-03-26T04:30:48;4.90;;;1.85;;
66429;SDS011;53242;51.694;10.006;2023-03-26T04:33:26;6.00;;;1.50;;
66429;SDS011;53242;51.694;10.006;2023-03-26T04:35:50;5.15;;;1.95;;
66429;SDS011;53242;51.694;10.006;2023-03-26T04:38:14;5.28;;;1.70;;
66429;SDS011;53242;51.694;10.006;2023-03-26T04:40:42;6.40;;;1.60;;
66429;SDS011;53242;51.694;10.006;2023-03-26T04:43:25;4.65;;;1.55;;
66429;SDS011;53242;51.694;10.006;2023-03-26T04:46:20;5.80;;;1.40;;
66429;SDS011;53242;51.694;10.006;2023-03-26T04:48:53;4.80;;;1.50;;
66429;SDS011;53242;51.694;10.006;2023-03-26T04:51:16;7.55;;;2.05;;
66429;SDS011;53242;51.694;10.006;2023-03-26T04:53:40;4.97;;;1.70;;
66429;SDS011;53242;51.694;10.006;2023-03-26T04:59:26;6.97;;;1.67;;
66429;SDS011;53242;51.694;10.006;2023-03-26T05:01:55;6.63;;;1.60;;
66429;SDS011;53242;51.694;10.006;2023-03-26T05:04:20;6.10;;;1.75;;
66429;SDS011;53242;51.694;10.006;2023-03-26T05:06:43;7.90;;;1.60;;
66429;SDS011;53242;51.694;10.006;2023-03-26T05:09:15;4.80;;;1.63;;
66429;SDS011;53242;51.694;10.006;2023-03-26T05:11:57;5.53;;;1.63;;
66429;SDS011;53242;51.694;10.006;2023-03-26T05:14:20;6.43;;;1.48;;
66429;SDS011;53242;51.694;10.006;2023-03-26T05:16:45;4.53;;;1.33;;
66429;SDS011;53242;51.694;10.006;2023-03-26T05:19:09;4.82;;;1.67;;
66429;SDS011;53242;51.694;10.006;2023-03-26T05:21:32;4.47;;;1.23;;
66429;SDS011;53242;51.694;10.006;2023-03-26T05:23:54;2.70;;;1.23;;
66429;SDS011;53242;51.694;10.006;2023-03-26T05:26:18;2.35;;;0.77;;
66429;SDS011;53242;51.694;10.006;2023-03-26T05:28:41;4.47;;;1.10;;
66429;SDS011;53242;51.694;10.006;2023-03-26T05:31:17;2.72;;;1.10;;
66429;SDS011;53242;51.694;10.006;2023-03-26T05:33:43;3.08;;;1.20;;
66429;SDS011;53242;51.694;10.006;2023-03-26T05:36:09;9.65;;;1.40;;
66429;SDS011;53242;51.694;10.006;2023-03-26T05:38:40;4.93;;;1.63;;
66429;SDS011;53242;51.694;10.006;2023-03-26T05:41:07;6.65;;;1.50;;
66429;SDS011;53242;51.694;10.006;2023-03-26T05:43:32;4.60;;;1.35;;
66429;SDS011;53242;51.694;10.006;2023-03-26T05:46:04;5.43;;;1.63;;
66429;SDS011;53242;51.694;10.006;2023-03-26T05:48:27;9.73;;;2.55;;
66429;SDS011;53242;51.694;10.006;2023-03-26T05:50:50;9.18;;;2.15;;
66429;SDS011;53242;51.694;10.006;2023-03-26T05:53:14;8.38;;;2.30;;
66429;SDS011;53242;51.694;10.006;2023-03-26T05:55:57;9.90;;;3.05;;
66429;SDS011;53242;51.694;10.006;2023-03-26T05:58:45;7.53;;;1.60;;
66429;SDS011;53242;51.694;10.006;2023-03-26T06:01:27;4.22;;;1.50;;
66429;SDS011;53242;51.694;10.006;2023-03-26T06:04:25;6.53;;;1.80;;
66429;SDS011;53242;51.694;10.006;2023-03-26T06:07:15;6.50;;;1.77;;
66429;SDS011;53242;51.694;10.006;2023-03-26T06:09:42;6.65;;;1.88;;
66429;SDS011;53242;51.694;10.006;2023-03-26T06:12:06;4.43;;;1.63;;
66429;SDS011;53242;51.694;10.006;2023-03-26T06:14:29;8.40;;;1.67;;
66429;SDS011;53242;51.694;10.006;2023-03-26T06:17:20;5.95;;;1.42;;
66429;SDS011;53242;51.694;10.006;2023-03-26T06:19:59;6.70;;;1.70;;
66429;SDS011;53242;51.694;10.006;2023-03-26T06:22:32;8.23;;;1.88;;
66429;SDS011;53242;51.694;10.006;2023-03-26T06:25:14;6.38;;;1.90;;
66429;SDS011;53242;51.694;10.006;2023-03-26T06:27:50;7.43;;;1.70;;
66429;SDS011;53242;51.694;10.006;2023-03-26T06:30:39;8.35;;;1.77;;
66429;SDS011;53242;51.694;10.006;2023-03-26T06:33:36;8.30;;;2.10;;
66429;SDS011;53242;51.694;10.006;2023-03-26T06:35:59;6.22;;;1.85;;
66429;SDS011;53242;51.694;10.006;2023-03-26T06:38:22;10.13;;;2.15;;
66429;SDS011;53242;51.694;10.006;2023-03-26T06:40:44;9.68;;;2.00;;
66429;SDS011;53242;51.694;10.006;2023-03-26T06:43:21;6.63;;;2.05;;
66429;SDS011;53242;51.694;10.006;2023-03-26T06:46:06;10.18;;;1.98;;
66429;SDS011;53242;51.694;10.006;2023-03-26T06:48:50;10.50;;;2.20;;
66429;SDS011;53242;51.694;10.006;2023-03-26T06:51:33;10.38;;;2.70;;
66429;SDS011;53242;51.694;10.006;2023-03-26T06:54:14;24.48;;;7.00;;
66429;SDS011;53242;51.694;10.006;2023-03-26T06:56:48;23.60;;;7.93;;
66429;SDS011;53242;51.694;10.006;2023-03-26T06:59:44;22.67;;;7.47;;
66429;SDS011;53242;51.694;10.006;2023-03-26T07:02:25;18.02;;;3.88;;
66429;SDS011;53242;51.694;10.006;2023-03-26T07:05:07;13.27;;;4.13;;
66429;SDS011;53242;51.694;10.006;2023-03-26T07:07:48;11.40;;;3.40;;
66429;SDS011;53242;51.694;10.006;2023-03-26T07:10:33;8.20;;;2.60;;
66429;SDS011;53242;51.694;10.006;2023-03-26T07:13:07;12.30;;;3.42;;
66429;SDS011;53242;51.694;10.006;2023-03-26T07:15:38;11.63;;;2.33;;
66429;SDS011;53242;51.694;10.006;2023-03-26T07:18:08;10.23;;;2.08;;
66429;SDS011;53242;51.694;10.006;2023-03-26T07:20:32;9.27;;;2.22;;
66429;SDS011;53242;51.694;10.006;2023-03-26T07:22:55;6.47;;;1.80;;
66429;SDS011;53242;51.694;10.006;2023-03-26T07:25:37;10.70;;;2.78;;
66429;SDS011;53242;51.694;10.006;2023-03-26T07:28:16;13.40;;;2.45;;
66429;SDS011;53242;51.694;10.006;2023-03-26T07:33:42;4.70;;;2.10;;
66429;SDS011;53242;51.694;10.006;2023-03-26T07:36:42;11.20;;;2.30;;
66429;SDS011;53242;51.694;10.006;2023-03-26T07:45:52;8.60;;;2.00;;
66429;SDS011;53242;51.694;10.006;2023-03-26T07:48:21;8.95;;;2.00;;
66429;SDS011;53242;51.694;10.006;2023-03-26T07:50:55;9.35;;;1.90;;
66429;SDS011;53242;51.694;10.006;2023-03-26T07:53:24;9.98;;;2.20;;
66429;SDS011;53242;51.694;10.006;2023-03-26T07:56:12;6.78;;;2.00;;
66429;SDS011;53242;51.694;10.006;2023-03-26T08:07:41;13.02;;;2.40;;
66429;SDS011;53242;51.694;10.006;2023-03-26T08:10:36;11.68;;;2.20;;
66429;SDS011;53242;51.694;10.006;2023-03-26T08:15:48;11.30;;;2.47;;
66429;SDS011;53242;51.694;10.006;2023-03-26T08:18:23;11.02;;;2.42;;
66429;SDS011;53242;51.694;10.006;2023-03-26T08:20:59;7.60;;;2.20;;
66429;SDS011;53242;51.694;10.006;2023-03-26T08:23:36;11.50;;;2.50;;
66429;SDS011;53242;51.694;10.006;2023-03-26T08:26:18;8.48;;;2.38;;
66429;SDS011;53242;51.694;10.006;2023-03-26T08:31:36;9.95;;;2.15;;
66429;SDS011;53242;51.694;10.006;2023-03-26T08:34:01;8.40;;;2.20;;
66429;SDS011;53242;51.694;10.006;2023-03-26T08:36:23;9.82;;;2.05;;
66429;SDS011;53242;51.694;10.006;2023-03-26T08:38:46;8.70;;;2.03;;
66429;SDS011;53242;51.694;10.006;2023-03-26T08:49:12;14.38;;;2.10;;
66429;SDS011;53242;51.694;10.006;2023-03-26T08:54:51;9.07;;;1.98;;
66429;SDS011;53242;51.694;10.006;2023-03-26T09:05:59;14.43;;;2.90;;
66429;SDS011;53242;51.694;10.006;2023-03-26T09:20:24;9.15;;;2.83;;
66429;SDS011;53242;51.694;10.006;2023-03-26T09:23:05;10.93;;;2.28;;
66429;SDS011;53242;51.694;10.006;2023-03-26T09:26:00;11.88;;;2.00;;
66429;SDS011;53242;51.694;10.006;2023-03-26T09:28:40;10.85;;;2.60;;
66429;SDS011;53242;51.694;10.006;2023-03-26T09:39:16;10.95;;;2.38;;
66429;SDS011;53242;51.694;10.006;2023-03-26T09:49:52;13.13;;;2.28;;
66429;SDS011;53242;51.694;10.006;2023-03-26T09:52:45;9.43;;;2.20;;
66429;SDS011;53242;51.694;10.006;2023-03-26T09:58:03;9.93;;;2.13;;
66429;SDS011;53242;51.694;10.006;2023-03-26T10:00:40;7.28;;;2.13;;
66429;SDS011;53242;51.694;10.006;2023-03-26T10:03:14;9.25;;;2.47;;
66429;SDS011;53242;51.694;10.006;2023-03-26T10:06:07;9.50;;;2.38;;
66429;SDS011;53242;51.694;10.006;2023-03-26T10:09:19;7.47;;;2.00;;
66429;SDS011;53242;51.694;10.006;2023-03-26T10:11:44;11.60;;;2.22;;
66429;SDS011;53242;51.694;10.006;2023-03-26T10:14:19;10.35;;;2.28;;
66429;SDS011;53242;51.694;10.006;2023-03-26T10:17:26;7.60;;;2.05;;
66429;SDS011;53242;51.694;10.006;2023-03-26T10:25:34;5.55;;;1.70;;
66429;SDS011;53242;51.694;10.006;2023-03-26T10:36:36;11.60;;;2.47;;
66429;SDS011;53242;51.694;10.006;2023-03-26T10:39:07;10.45;;;2.45;;
66429;SDS011;53242;51.694;10.006;2023-03-26T10:49:32;8.55;;;2.28;;
66429;SDS011;53242;51.694;10.006;2023-03-26T10:52:21;11.52;;;3.10;;
66429;SDS011;53242;51.694;10.006;2023-03-26T10:54:56;12.30;;;2.67;;
66429;SDS011;53242;51.694;10.006;2023-03-26T11:00:17;8.52;;;1.92;;
66429;SDS011;53242;51.694;10.006;2023-03-26T11:02:53;8.13;;;2.50;;
66429;SDS011;53242;51.694;10.006;2023-03-26T11:08:38;8.60;;;1.85;;
66429;SDS011;53242;51.694;10.006;2023-03-26T11:13:53;11.20;;;2.20;;
66429;SDS011;53242;51.694;10.006;2023-03-26T11:19:28;8.75;;;2.67;;
66429;SDS011;53242;51.694;10.006;2023-03-26T11:24:31;11.18;;;2.80;;
66429;SDS011;53242;51.694;10.006;2023-03-26T11:27:12;6.88;;;1.90;;
66429;SDS011;53242;51.694;10.006;2023-03-26T11:29:47;10.98;;;2.38;;
66429;SDS011;53242;51.694;10.006;2023-03-26T11:32:19;12.18;;;2.50;;
66429;SDS011;53242;51.694;10.006;2023-03-26T11:34:54;11.80;;;2.70;;
66429;SDS011;53242;51.694;10.006;2023-03-26T11:37:39;6.93;;;2.50;;
66429;SDS011;53242;51.694;10.006;2023-03-26T11:40:08;15.35;;;3.47;;
66429;SDS011;53242;51.694;10.006;2023-03-26T11:42:54;12.98;;;3.22;;
66429;SDS011;53242;51.694;10.006;2023-03-26T11:45:21;9.20;;;2.13;;
66429;SDS011;53242;51.694;10.006;2023-03-26T11:47:49;6.75;;;2.38;;
66429;SDS011;53242;51.694;10.006;2023-03-26T11:50:15;13.13;;;2.75;;
66429;SDS011;53242;51.694;10.006;2023-03-26T11:52:44;13.95;;;2.63;;
66429;SDS011;53242;51.694;10.006;2023-03-26T11:55:09;12.63;;;3.13;;
66429;SDS011;53242;51.694;10.006;2023-03-26T11:57:33;10.43;;;2.25;;
66429;SDS011;53242;51.694;10.006;2023-03-26T12:00:03;12.45;;;3.20;;
66429;SDS011;53242;51.694;10.006;2023-03-26T12:02:39;9.93;;;2.28;;
66429;SDS011;53242;51.694;10.006;2023-03-26T12:05:09;8.80;;;1.85;;
66429;SDS011;53242;51.694;10.006;2023-03-26T12:07:34;9.00;;;1.40;;
66429;SDS011;53242;51.694;10.006;2023-03-26T12:09:58;4.43;;;1.25;;
66429;SDS011;53242;51.694;10.006;2023-03-26T12:12:25;7.72;;;1.50;;
66429;SDS011;53242;51.694;10.006;2023-03-26T12:14:50;5.70;;;1.13;;
66429;SDS011;53242;51.694;10.006;2023-03-26T12:17:14;5.80;;;0.98;;
66429;SDS011;53242;51.694;10.006;2023-03-26T12:19:48;4.85;;;1.13;;
66429;SDS011;53242;51.694;10.006;2023-03-26T12:22:27;5.70;;;1.30;;
66429;SDS011;53242;51.694;10.006;2023-03-26T12:24:59;5.93;;;1.48;;
66429;SDS011;53242;51.694;10.006;2023-03-26T12:27:39;6.35;;;1.15;;
66429;SDS011;53242;51.694;10.006;2023-03-26T12:30:23;7.65;;;1.70;;
66429;SDS011;53242;51.694;10.006;2023-03-26T12:32:47;5.07;;;1.50;;
66429;SDS011;53242;51.694;10.006;2023-03-26T12:35:14;3.83;;;1.05;;
66429;SDS011;53242;51.694;10.006;2023-03-26T12:37:42;8.95;;;1.33;;
66429;SDS011;53242;51.694;10.006;2023-03-26T12:40:07;4.10;;;1.27;;
66429;SDS011;53242;51.694;10.006;2023-03-26T12:42:51;2.10;;;1.23;;
66429;SDS011;53242;51.694;10.006;2023-03-26T12:45:18;3.30;;;1.02;;
66429;SDS011;53242;51.694;10.006;2023-03-26T12:47:43;2.65;;;0.80;;
66429;SDS011;53242;51.694;10.006;2023-03-26T12:50:10;3.75;;;0.80;;
66429;SDS011;53242;51.694;10.006;2023-03-26T12:58:04;4.18;;;1.08;;
66429;SDS011;53242;51.694;10.006;2023-03-26T13:00:48;6.28;;;1.60;;
66429;SDS011;53242;51.694;10.006;2023-03-26T13:08:55;2.60;;;0.80;;
66429;SDS011;53242;51.694;10.006;2023-03-26T13:11:58;3.50;;;0.75;;
66429;SDS011;53242;51.694;10.006;2023-03-26T13:17:11;3.78;;;0.93;;
66429;SDS011;53242;51.694;10.006;2023-03-26T13:19:47;4.90;;;0.90;;
66429;SDS011;53242;51.694;10.006;2023-03-26T13:47:16;3.28;;;0.70;;
66429;SDS011;53242;51.694;10.006;2023-03-26T13:49:48;4.50;;;0.95;;
66429;SDS011;53242;51.694;10.006;2023-03-26T13:52:27;6.22;;;1.50;;
66429;SDS011;53242;51.694;10.006;2023-03-26T13:57:44;3.65;;;0.80;;
66429;SDS011;53242;51.694;10.006;2023-03-26T14:00:12;2.70;;;0.88;;
66429;SDS011;53242;51.694;10.006;2023-03-26T14:02:39;3.08;;;0.82;;
66429;SDS011;53242;51.694;10.006;2023-03-26T14:10:50;14.65;;;4.22;;
66429;SDS011;53242;51.694;10.006;2023-03-26T14:23:41;4.90;;;1.23;;
66429;SDS011;53242;51.694;10.006;2023-03-26T14:31:28;2.38;;;0.50;;
66429;SDS011;53242;51.694;10.006;2023-03-26T14:36:51;0.70;;;0.40;;
66429;SDS011;53242;51.694;10.006;2023-03-26T14:39:25;1.13;;;0.40;;
66429;SDS011;53242;51.694;10.006;2023-03-26T14:48:33;0.65;;;0.40;;
66429;SDS011;53242;51.694;10.006;2023-03-26T14:53:11;2.67;;;0.43;;
66429;SDS011;53242;51.694;10.006;2023-03-26T14:58:10;0.98;;;0.45;;
66429;SDS011;53242;51.694;10.006;2023-03-26T15:03:38;0.55;;;0.30;;
66429;SDS011;53242;51.694;10.006;2023-03-26T15:06:31;4.28;;;1.40;;
66429;SDS011;53242;51.694;10.006;2023-03-26T15:09:35;3.33;;;0.63;;
66429;SDS011;53242;51.694;10.006;2023-03-26T15:12:32;5.95;;;2.30;;
66429;SDS011;53242;51.694;10.006;2023-03-26T15:18:02;1.77;;;0.30;;
66429;SDS011;53242;51.694;10.006;2023-03-26T15:26:22;1.27;;;0.40;;
66429;SDS011;53242;51.694;10.006;2023-03-26T15:43:09;2.78;;;0.50;;
66429;SDS011;53242;51.694;10.006;2023-03-26T15:50:53;1.08;;;0.47;;
66429;SDS011;53242;51.694;10.006;2023-03-26T15:56:29;2.60;;;0.47;;
66429;SDS011;53242;51.694;10.006;2023-03-26T16:01:48;3.97;;;0.80;;
66429;SDS011;53242;51.694;10.006;2023-03-26T16:15:38;1.20;;;0.47;;
66429;SDS011;53242;51.694;10.006;2023-03-26T16:26:13;2.47;;;0.60;;
66429;SDS011;53242;51.694;10.006;2023-03-26T16:33:36;2.70;;;0.60;;
66429;SDS011;53242;51.694;10.006;2023-03-26T16:36:13;2.47;;;0.43;;
66429;SDS011;53242;51.694;10.006;2023-03-26T16:41:27;1.48;;;0.47;;
66429;SDS011;53242;51.694;10.006;2023-03-26T16:44:16;1.35;;;0.50;;
66429;SDS011;53242;51.694;10.006;2023-03-26T16:46:41;1.35;;;0.40;;
66429;SDS011;53242;51.694;10.006;2023-03-26T16:51:59;8.75;;;2.10;;
66429;SDS011;53242;51.694;10.006;2023-03-26T16:57:27;8.68;;;2.20;;
66429;SDS011;53242;51.694;10.006;2023-03-26T17:08:20;5.75;;;1.35;;
66429;SDS011;53242;51.694;10.006;2023-03-26T17:16:21;2.47;;;0.80;;
66429;SDS011;53242;51.694;10.006;2023-03-26T17:21:49;3.22;;;1.25;;
66429;SDS011;53242;51.694;10.006;2023-03-26T17:24:38;2.30;;;0.90;;
66429;SDS011;53242;51.694;10.006;2023-03-26T17:27:43;6.95;;;1.55;;
66429;SDS011;53242;51.694;10.006;2023-03-26T17:33:20;3.17;;;1.55;;
66429;SDS011;53242;51.694;10.006;2023-03-26T17:35:49;5.82;;;1.70;;
66429;SDS011;53242;51.694;10.006;2023-03-26T17:40:48;3.90;;;1.48;;
66429;SDS011;53242;51.694;10.006;2023-03-26T17:46:17;4.38;;;1.52;;
66429;SDS011;53242;51.694;10.006;2023-03-26T17:49:12;5.35;;;1.48;;
66429;SDS011;53242;51.694;10.006;2023-03-26T17:51:49;7.45;;;2.50;;
66429;SDS011;53242;51.694;10.006;2023-03-26T17:54:16;8.70;;;3.08;;
66429;SDS011;53242;51.694;10.006;2023-03-26T17:56:43;7.85;;;2.45;;
66429;SDS011;53242;51.694;10.006;2023-03-26T17:59:07;8.23;;;2.53;;
66429;SDS011;53242;51.694;10.006;2023-03-26T18:01:39;7.05;;;2.10;;
66429;SDS011;53242;51.694;10.006;2023-03-26T18:04:05;4.57;;;1.75;;
66429;SDS011;53242;51.694;10.006;2023-03-26T18:07:08;6.72;;;2.05;;
66429;SDS011;53242;51.694;10.006;2023-03-26T18:09:31;5.53;;;1.80;;
66429;SDS011;53242;51.694;10.006;2023-03-26T18:14:44;5.50;;;2.08;;
66429;SDS011;53242;51.694;10.006;2023-03-26T18:17:30;3.92;;;1.50;;
66429;SDS011;53242;51.694;10.006;2023-03-26T18:20:04;3.35;;;1.30;;
66429;SDS011;53242;51.694;10.006;2023-03-26T18:22:28;3.90;;;1.50;;
66429;SDS011;53242;51.694;10.006;2023-03-26T18:24:52;5.32;;;1.95;;
66429;SDS011;53242;51.694;10.006;2023-03-26T18:27:21;5.72;;;2.10;;
66429;SDS011;53242;51.694;10.006;2023-03-26T18:29:45;6.18;;;1.83;;
66429;SDS011;53242;51.694;10.006;2023-03-26T18:32:20;8.02;;;2.15;;
66429;SDS011;53242;51.694;10.006;2023-03-26T18:34:47;11.10;;;3.08;;
66429;SDS011;53242;51.694;10.006;2023-03-26T18:39:57;5.47;;;1.90;;
66429;SDS011;53242;51.694;10.006;2023-03-26T18:42:23;6.72;;;2.03;;
66429;SDS011;53242;51.694;10.006;2023-03-26T18:44:48;7.95;;;1.77;;
66429;SDS011;53242;51.694;10.006;2023-03-26T18:47:14;6.75;;;2.03;;
66429;SDS011;53242;51.694;10.006;2023-03-26T18:49:36;4.18;;;1.80;;
66429;SDS011;53242;51.694;10.006;2023-03-26T18:51:59;7.40;;;2.10;;
66429;SDS011;53242;51.694;10.006;2023-03-26T18:54:22;6.15;;;1.90;;
66429;SDS011;53242;51.694;10.006;2023-03-26T18:56:45;4.90;;;2.13;;
66429;SDS011;53242;51.694;10.006;2023-03-26T18:59:51;5.53;;;2.25;;
66429;SDS011;53242;51.694;10.006;2023-03-26T19:01:56;6.20;;;2.25;;
66429;SDS011;53242;51.694;10.006;2023-03-26T19:04:20;7.63;;;2.20;;
66429;SDS011;53242;51.694;10.006;2023-03-26T19:06:43;6.57;;;2.10;;
66429;SDS011;53242;51.694;10.006;2023-03-26T19:09:07;7.82;;;2.17;;
66429;SDS011;53242;51.694;10.006;2023-03-26T19:14:12;8.65;;;2.60;;
66429;SDS011;53242;51.694;10.006;2023-03-26T19:16:36;8.98;;;2.50;;
66429;SDS011;53242;51.694;10.006;2023-03-26T19:19:05;8.50;;;2.53;;
66429;SDS011;53242;51.694;10.006;2023-03-26T19:21:28;7.70;;;2.20;;
66429;SDS011;53242;51.694;10.006;2023-03-26T19:23:51;4.72;;;1.90;;
66429;SDS011;53242;51.694;10.006;2023-03-26T19:26:15;10.20;;;2.40;;
66429;SDS011;53242;51.694;10.006;2023-03-26T19:31:18;10.63;;;1.90;;
66429;SDS011;53242;51.694;10.006;2023-03-26T19:33:45;6.00;;;1.67;;
66429;SDS011;53242;51.694;10.006;2023-03-26T19:36:16;8.68;;;1.73;;
66429;SDS011;53242;51.694;10.006;2023-03-26T19:41:19;7.90;;;2.28;;
66429;SDS011;53242;51.694;10.006;2023-03-26T19:43:46;9.60;;;1.92;;
66429;SDS011;53242;51.694;10.006;2023-03-26T19:46:11;10.20;;;2.03;;
66429;SDS011;53242;51.694;10.006;2023-03-26T19:48:35;6.03;;;1.80;;
66429;SDS011;53242;51.694;10.006;2023-03-26T19:51:02;9.20;;;2.17;;
66429;SDS011;53242;51.694;10.006;2023-03-26T19:53:30;7.50;;;1.92;;
66429;SDS011;53242;51.694;10.006;2023-03-26T19:55:58;11.10;;;1.98;;
66429;SDS011;53242;51.694;10.006;2023-03-26T20:00:48;9.65;;;1.65;;
66429;SDS011;53242;51.694;10.006;2023-03-26T20:03:10;15.75;;;2.42;;
66429;SDS011;53242;51.694;10.006;2023-03-26T20:05:33;9.38;;;2.20;;
66429;SDS011;53242;51.694;10.006;2023-03-26T20:07:57;9.30;;;2.53;;
66429;SDS011;53242;51.694;10.006;2023-03-26T20:10:22;7.70;;;1.98;;
66429;SDS011;53242;51.694;10.006;2023-03-26T20:12:45;7.65;;;1.77;;